sensor_id;sensor_type;location;lat;lon;timestamp;temperature;humidity
11597;DHT22;5854;48.072;16.286;2023-02-11T08:24:51;3.10;47.60
11597;DHT22;5854;48.072;16.286;2023-02-11T08:27:24;3.60;44.20
11597;DHT22;5854;48.072;16.286;2023-02-11T09:24:33;5.20;41.80
11597;DHT22;5854;48.072;16.286;2023-02-11T09:27:21;5.20;39.90
11597;DHT22;5854;48.072;16.286;2023-02-11T09:30:09;5.20;40.40
11597;DHT22;5854;48.072;16.286;2023-02-11T09:35:26;5.60;38.60
11597;DHT22;5854;48.072;16.286;2023-02-11T09:38:04;5.50;39.60
11597;DHT22;5854;48.072;16.286;2023-02-11T09:58:40;4.20;44.40
11597;DHT22;5854;48.072;16.286;2023-02-11T10:01:32;4.50;44.30
11597;DHT22;5854;48.072;16.286;2023-02-11T10:04:10;4.70;42.90
11597;DHT22;5854;48.072;16.286;2023-02-11T10:06:54;4.60;44.10
11597;DHT22;5854;48.072;16.286;2023-02-11T10:09:47;4.80;42.00
11597;DHT22;5854;48.072;16.286;2023-02-11T10:12:40;5.00;42.10
11597;DHT22;5854;48.072;16.286;2023-02-11T10:15:27;4.90;43.80
11597;DHT22;5854;48.072;16.286;2023-02-11T10:23:37;4.40;45.30
11597;DHT22;5854;48.072;16.286;2023-02-11T10:47:03;5.90;38.50
11597;DHT22;5854;48.072;16.286;2023-02-11T10:49:42;6.00;39.50
11597;DHT22;5854;48.072;16.286;2023-02-11T10:57:20;5.90;37.90
11597;DHT22;5854;48.072;16.286;2023-02-11T11:10:06;5.50;38.50
11597;DHT22;5854;48.072;16.286;2023-02-11T11:13:08;5.70;37.40
11597;DHT22;5854;48.072;16.286;2023-02-11T11:21:11;5.60;42.10
11597;DHT22;5854;48.072;16.286;2023-02-11T11:23:54;6.00;39.10
11597;DHT22;5854;48.072;16.286;2023-02-11T11:26:37;5.80;40.10
11597;DHT22;5854;48.072;16.286;2023-02-11T11:29:19;5.60;42.30
11597;DHT22;5854;48.072;16.286;2023-02-11T11:32:00;5.70;43.40
11597;DHT22;5854;48.072;16.286;2023-02-11T11:39:34;5.60;40.70
11597;DHT22;5854;48.072;16.286;2023-02-11T11:42:25;6.10;39.10
11597;DHT22;5854;48.072;16.286;2023-02-11T11:52:38;6.60;39.90
11597;DHT22;5854;48.072;16.286;2023-02-11T11:55:19;6.80;37.40
11597;DHT22;5854;48.072;16.286;2023-02-11T11:58:00;6.60;38.40
11597;DHT22;5854;48.072;16.286;2023-02-11T12:00:40;6.60;36.90
11597;DHT22;5854;48.072;16.286;2023-02-11T12:26:56;5.40;44.00
11597;DHT22;5854;48.072;16.286;2023-02-11T12:32:15;6.00;44.30
11597;DHT22;5854;48.072;16.286;2023-02-11T12:37:27;6.20;39.60
11597;DHT22;5854;48.072;16.286;2023-02-11T12:40:15;7.00;39.00
11597;DHT22;5854;48.072;16.286;2023-02-11T12:42:50;7.40;36.30
11597;DHT22;5854;48.072;16.286;2023-02-11T12:49:19;7.30;35.20
11597;DHT22;5854;48.072;16.286;2023-02-11T12:52:07;7.10;34.90
11597;DHT22;5854;48.072;16.286;2023-02-11T12:54:46;7.30;34.20
11597;DHT22;5854;48.072;16.286;2023-02-11T12:57:21;7.40;32.80
11597;DHT22;5854;48.072;16.286;2023-02-11T12:59:55;7.40;32.40
11597;DHT22;5854;48.072;16.286;2023-02-11T13:02:31;7.60;32.20
11597;DHT22;5854;48.072;16.286;2023-02-11T13:05:10;7.60;32.60
11597;DHT22;5854;48.072;16.286;2023-02-11T13:07:44;7.60;31.60
11597;DHT22;5854;48.072;16.286;2023-02-11T13:10:25;7.60;31.50
11597;DHT22;5854;48.072;16.286;2023-02-11T13:12:55;7.50;30.70
11597;DHT22;5854;48.072;16.286;2023-02-11T13:15:41;7.60;30.30
11597;DHT22;5854;48.072;16.286;2023-02-11T13:18:33;7.50;31.30
11597;DHT22;5854;48.072;16.286;2023-02-11T13:21:20;7.50;30.30
11597;DHT22;5854;48.072;16.286;2023-02-11T13:24:08;7.50;29.30
11597;DHT22;5854;48.072;16.286;2023-02-11T13:26:46;7.50;28.90
11597;DHT22;5854;48.072;16.286;2023-02-11T13:29:27;7.70;28.80
11597;DHT22;5854;48.072;16.286;2023-02-11T13:32:06;7.60;28.70
11597;DHT22;5854;48.072;16.286;2023-02-11T13:34:54;7.60;29.40
11597;DHT22;5854;48.072;16.286;2023-02-11T13:37:26;7.50;29.50
11597;DHT22;5854;48.072;16.286;2023-02-11T13:39:59;7.40;30.20
11597;DHT22;5854;48.072;16.286;2023-02-11T13:42:29;7.40;31.20
11597;DHT22;5854;48.072;16.286;2023-02-11T13:44:57;7.30;32.30
11597;DHT22;5854;48.072;16.286;2023-02-11T13:47:29;7.30;32.90
11597;DHT22;5854;48.072;16.286;2023-02-11T13:49:59;7.30;32.80
11597;DHT22;5854;48.072;16.286;2023-02-11T13:52:30;7.20;32.00
11597;DHT22;5854;48.072;16.286;2023-02-11T13:55:04;7.30;32.70
11597;DHT22;5854;48.072;16.286;2023-02-11T13:57:38;7.30;32.50
11597;DHT22;5854;48.072;16.286;2023-02-11T14:03:29;7.10;32.50
11597;DHT22;5854;48.072;16.286;2023-02-11T14:06:21;7.10;32.50
11597;DHT22;5854;48.072;16.286;2023-02-11T14:09:33;7.10;33.60
11597;DHT22;5854;48.072;16.286;2023-02-11T14:12:32;7.20;32.80
11597;DHT22;5854;48.072;16.286;2023-02-11T14:15:24;7.30;32.80
11597;DHT22;5854;48.072;16.286;2023-02-11T14:17:52;7.40;31.90
11597;DHT22;5854;48.072;16.286;2023-02-11T14:20:42;7.40;32.00
11597;DHT22;5854;48.072;16.286;2023-02-11T14:23:23;7.50;32.40
11597;DHT22;5854;48.072;16.286;2023-02-11T14:26:05;7.40;32.70
11597;DHT22;5854;48.072;16.286;2023-02-11T14:28:47;7.30;32.60
11597;DHT22;5854;48.072;16.286;2023-02-11T14:31:20;7.20;32.40
11597;DHT22;5854;48.072;16.286;2023-02-11T14:34:23;7.20;32.60
11597;DHT22;5854;48.072;16.286;2023-02-11T14:37:13;7.20;32.80
11597;DHT22;5854;48.072;16.286;2023-02-11T14:39:54;7.10;33.90
11597;DHT22;5854;48.072;16.286;2023-02-11T14:42:27;6.90;34.00
11597;DHT22;5854;48.072;16.286;2023-02-11T14:44:57;6.90;33.50
11597;DHT22;5854;48.072;16.286;2023-02-11T14:47:35;6.90;33.60
11597;DHT22;5854;48.072;16.286;2023-02-11T14:50:23;6.90;34.20
11597;DHT22;5854;48.072;16.286;2023-02-11T14:52:52;6.80;34.50
11597;DHT22;5854;48.072;16.286;2023-02-11T14:55:28;6.80;34.90
11597;DHT22;5854;48.072;16.286;2023-02-11T14:58:15;6.80;35.30
11597;DHT22;5854;48.072;16.286;2023-02-11T15:00:52;6.80;36.40
11597;DHT22;5854;48.072;16.286;2023-02-11T15:03:31;6.60;34.50
11597;DHT22;5854;48.072;16.286;2023-02-11T15:06:02;6.60;34.30
11597;DHT22;5854;48.072;16.286;2023-02-11T15:08:33;6.60;35.10
11597;DHT22;5854;48.072;16.286;2023-02-11T15:11:02;6.60;35.30
11597;DHT22;5854;48.072;16.286;2023-02-11T15:13:34;6.50;35.30
11597;DHT22;5854;48.072;16.286;2023-02-11T15:16:05;6.60;35.90
11597;DHT22;5854;48.072;16.286;2023-02-11T15:18:39;6.50;35.70
11597;DHT22;5854;48.072;16.286;2023-02-11T15:21:08;6.60;36.10
11597;DHT22;5854;48.072;16.286;2023-02-11T15:23:35;6.60;36.10
11597;DHT22;5854;48.072;16.286;2023-02-11T15:26:11;6.50;37.20
11597;DHT22;5854;48.072;16.286;2023-02-11T15:28:46;6.50;36.90
11597;DHT22;5854;48.072;16.286;2023-02-11T15:31:19;6.60;37.30
11597;DHT22;5854;48.072;16.286;2023-02-11T15:33:50;6.60;37.90
11597;DHT22;5854;48.072;16.286;2023-02-11T15:36:19;6.50;38.60
11597;DHT22;5854;48.072;16.286;2023-02-11T15:39:14;6.50;39.00
11597;DHT22;5854;48.072;16.286;2023-02-11T15:41:45;6.40;39.40
11597;DHT22;5854;48.072;16.286;2023-02-11T15:44:30;6.40;39.70
11597;DHT22;5854;48.072;16.286;2023-02-11T15:46:58;6.50;40.40
11597;DHT22;5854;48.072;16.286;2023-02-11T15:49:27;6.40;41.00
11597;DHT22;5854;48.072;16.286;2023-02-11T15:51:54;6.40;41.10
11597;DHT22;5854;48.072;16.286;2023-02-11T15:54:25;6.40;41.70
11597;DHT22;5854;48.072;16.286;2023-02-11T15:56:58;6.30;42.00
11597;DHT22;5854;48.072;16.286;2023-02-11T15:59:29;6.30;43.00
11597;DHT22;5854;48.072;16.286;2023-02-11T16:02:06;6.20;42.40
11597;DHT22;5854;48.072;16.286;2023-02-11T16:04:36;6.20;42.80
11597;DHT22;5854;48.072;16.286;2023-02-11T16:07:03;6.10;43.30
11597;DHT22;5854;48.072;16.286;2023-02-11T16:09:32;6.10;43.50
11597;DHT22;5854;48.072;16.286;2023-02-11T16:12:02;6.00;44.10
11597;DHT22;5854;48.072;16.286;2023-02-11T16:14:33;6.00;44.30
11597;DHT22;5854;48.072;16.286;2023-02-11T16:17:06;6.00;44.60
11597;DHT22;5854;48.072;16.286;2023-02-11T16:19:42;5.90;45.20
11597;DHT22;5854;48.072;16.286;2023-02-11T16:22:15;5.90;45.60
11597;DHT22;5854;48.072;16.286;2023-02-11T16:24:46;5.80;46.20
11597;DHT22;5854;48.072;16.286;2023-02-11T16:27:20;5.80;46.40
11597;DHT22;5854;48.072;16.286;2023-02-11T16:29:50;5.80;47.00
11597;DHT22;5854;48.072;16.286;2023-02-11T16:32:19;5.80;47.30
11597;DHT22;5854;48.072;16.286;2023-02-11T16:34:50;5.90;47.90
11597;DHT22;5854;48.072;16.286;2023-02-11T16:37:19;5.90;47.90
11597;DHT22;5854;48.072;16.286;2023-02-11T16:39:47;5.90;48.50
11597;DHT22;5854;48.072;16.286;2023-02-11T16:42:14;5.90;48.00
11597;DHT22;5854;48.072;16.286;2023-02-11T16:44:41;5.90;48.30
11597;DHT22;5854;48.072;16.286;2023-02-11T16:47:18;6.00;48.40
11597;DHT22;5854;48.072;16.286;2023-02-11T16:49:48;6.00;48.60
11597;DHT22;5854;48.072;16.286;2023-02-11T16:52:17;5.90;48.70
11597;DHT22;5854;48.072;16.286;2023-02-11T16:54:45;6.00;48.70
11597;DHT22;5854;48.072;16.286;2023-02-11T16:57:13;6.00;48.80
11597;DHT22;5854;48.072;16.286;2023-02-11T16:59:41;6.00;49.20
11597;DHT22;5854;48.072;16.286;2023-02-11T17:02:12;6.00;49.00
11597;DHT22;5854;48.072;16.286;2023-02-11T17:04:42;6.00;49.10
11597;DHT22;5854;48.072;16.286;2023-02-11T17:07:11;6.00;49.00
11597;DHT22;5854;48.072;16.286;2023-02-11T17:09:38;5.90;49.10
11597;DHT22;5854;48.072;16.286;2023-02-11T17:12:06;5.90;49.20
11597;DHT22;5854;48.072;16.286;2023-02-11T17:14:33;5.80;49.40
11597;DHT22;5854;48.072;16.286;2023-02-11T17:17:00;5.70;49.50
11597;DHT22;5854;48.072;16.286;2023-02-11T17:19:27;5.80;49.30
11597;DHT22;5854;48.072;16.286;2023-02-11T17:21:54;5.70;49.60
11597;DHT22;5854;48.072;16.286;2023-02-11T17:24:22;5.70;49.60
11597;DHT22;5854;48.072;16.286;2023-02-11T17:26:50;5.70;49.70
11597;DHT22;5854;48.072;16.286;2023-02-11T17:29:20;5.70;49.60
11597;DHT22;5854;48.072;16.286;2023-02-11T17:31:48;5.60;49.30
11597;DHT22;5854;48.072;16.286;2023-02-11T17:34:17;5.60;49.20
11597;DHT22;5854;48.072;16.286;2023-02-11T17:36:44;5.60;49.70
11597;DHT22;5854;48.072;16.286;2023-02-11T17:39:12;5.50;49.40
11597;DHT22;5854;48.072;16.286;2023-02-11T17:41:41;5.50;49.20
11597;DHT22;5854;48.072;16.286;2023-02-11T17:44:09;5.60;48.80
11597;DHT22;5854;48.072;16.286;2023-02-11T17:46:38;5.50;50.10
11597;DHT22;5854;48.072;16.286;2023-02-11T17:49:05;5.50;50.20
11597;DHT22;5854;48.072;16.286;2023-02-11T17:51:35;5.50;49.60
11597;DHT22;5854;48.072;16.286;2023-02-11T17:54:05;5.50;49.20
11597;DHT22;5854;48.072;16.286;2023-02-11T17:56:34;5.60;48.50
11597;DHT22;5854;48.072;16.286;2023-02-11T17:59:04;5.60;49.30
11597;DHT22;5854;48.072;16.286;2023-02-11T18:01:33;5.50;49.70
11597;DHT22;5854;48.072;16.286;2023-02-11T18:04:03;5.50;48.80
11597;DHT22;5854;48.072;16.286;2023-02-11T18:06:30;5.60;48.60
11597;DHT22;5854;48.072;16.286;2023-02-11T18:08:59;5.50;49.80
11597;DHT22;5854;48.072;16.286;2023-02-11T18:11:29;5.60;48.90
11597;DHT22;5854;48.072;16.286;2023-02-11T18:13:57;5.50;50.20
11597;DHT22;5854;48.072;16.286;2023-02-11T18:16:27;5.40;50.80
11597;DHT22;5854;48.072;16.286;2023-02-11T18:18:55;5.50;50.40
11597;DHT22;5854;48.072;16.286;2023-02-11T18:21:23;5.50;49.60
11597;DHT22;5854;48.072;16.286;2023-02-11T18:23:51;5.50;50.00
11597;DHT22;5854;48.072;16.286;2023-02-11T18:26:20;5.50;50.20
11597;DHT22;5854;48.072;16.286;2023-02-11T18:28:50;5.50;49.80
11597;DHT22;5854;48.072;16.286;2023-02-11T18:31:18;5.60;49.10
11597;DHT22;5854;48.072;16.286;2023-02-11T18:33:47;5.70;49.70
11597;DHT22;5854;48.072;16.286;2023-02-11T18:36:15;5.60;49.70
11597;DHT22;5854;48.072;16.286;2023-02-11T18:38:42;5.50;50.30
11597;DHT22;5854;48.072;16.286;2023-02-11T18:41:10;5.60;49.70
11597;DHT22;5854;48.072;16.286;2023-02-11T18:43:38;5.70;49.90
11597;DHT22;5854;48.072;16.286;2023-02-11T18:46:07;5.60;50.70
11597;DHT22;5854;48.072;16.286;2023-02-11T18:48:35;5.50;50.80
11597;DHT22;5854;48.072;16.286;2023-02-11T18:51:08;5.50;51.10
11597;DHT22;5854;48.072;16.286;2023-02-11T18:53:36;5.50;50.70
11597;DHT22;5854;48.072;16.286;2023-02-11T18:56:08;5.50;51.40
11597;DHT22;5854;48.072;16.286;2023-02-11T18:58:36;5.50;51.20
11597;DHT22;5854;48.072;16.286;2023-02-11T19:01:10;5.50;51.90
11597;DHT22;5854;48.072;16.286;2023-02-11T19:03:38;5.50;51.60
11597;DHT22;5854;48.072;16.286;2023-02-11T19:06:06;5.50;51.60
11597;DHT22;5854;48.072;16.286;2023-02-11T19:08:38;5.50;51.40
11597;DHT22;5854;48.072;16.286;2023-02-11T19:11:05;5.40;51.60
11597;DHT22;5854;48.072;16.286;2023-02-11T19:13:35;5.50;51.60
11597;DHT22;5854;48.072;16.286;2023-02-11T19:16:04;5.40;52.10
11597;DHT22;5854;48.072;16.286;2023-02-11T19:18:33;5.40;51.60
11597;DHT22;5854;48.072;16.286;2023-02-11T19:21:09;5.40;52.10
11597;DHT22;5854;48.072;16.286;2023-02-11T19:23:40;5.40;52.00
11597;DHT22;5854;48.072;16.286;2023-02-11T19:26:07;5.30;52.50
11597;DHT22;5854;48.072;16.286;2023-02-11T19:28:34;5.30;52.90
11597;DHT22;5854;48.072;16.286;2023-02-11T19:31:06;5.30;53.10
11597;DHT22;5854;48.072;16.286;2023-02-11T19:33:34;5.40;52.50
11597;DHT22;5854;48.072;16.286;2023-02-11T19:36:03;5.40;52.50
11597;DHT22;5854;48.072;16.286;2023-02-11T19:38:32;5.40;52.70
11597;DHT22;5854;48.072;16.286;2023-02-11T19:41:00;5.50;52.50
11597;DHT22;5854;48.072;16.286;2023-02-11T19:43:27;5.50;52.30
11597;DHT22;5854;48.072;16.286;2023-02-11T19:45:55;5.50;52.40
11597;DHT22;5854;48.072;16.286;2023-02-11T19:48:23;5.40;52.70
11597;DHT22;5854;48.072;16.286;2023-02-11T19:50:50;5.50;52.70
11597;DHT22;5854;48.072;16.286;2023-02-11T19:53:17;5.50;52.80
11597;DHT22;5854;48.072;16.286;2023-02-11T19:55:46;5.50;53.30
11597;DHT22;5854;48.072;16.286;2023-02-11T19:58:15;5.50;53.00
11597;DHT22;5854;48.072;16.286;2023-02-11T20:00:42;5.50;53.00
11597;DHT22;5854;48.072;16.286;2023-02-11T20:03:10;5.50;53.40
11597;DHT22;5854;48.072;16.286;2023-02-11T20:05:39;5.50;53.20
11597;DHT22;5854;48.072;16.286;2023-02-11T20:08:11;5.60;53.20
11597;DHT22;5854;48.072;16.286;2023-02-11T20:10:38;5.50;53.50
11597;DHT22;5854;48.072;16.286;2023-02-11T20:13:07;5.50;53.80
11597;DHT22;5854;48.072;16.286;2023-02-11T20:15:34;5.50;53.70
11597;DHT22;5854;48.072;16.286;2023-02-11T20:18:01;5.50;53.70
11597;DHT22;5854;48.072;16.286;2023-02-11T20:20:28;5.50;53.80
11597;DHT22;5854;48.072;16.286;2023-02-11T20:22:55;5.50;53.90
11597;DHT22;5854;48.072;16.286;2023-02-11T20:25:23;5.40;54.20
11597;DHT22;5854;48.072;16.286;2023-02-11T20:27:50;5.50;54.40
11597;DHT22;5854;48.072;16.286;2023-02-11T20:30:18;5.50;53.90
11597;DHT22;5854;48.072;16.286;2023-02-11T20:32:46;5.50;54.10
11597;DHT22;5854;48.072;16.286;2023-02-11T20:35:13;5.40;54.30
11597;DHT22;5854;48.072;16.286;2023-02-11T20:37:41;5.50;54.70
11597;DHT22;5854;48.072;16.286;2023-02-11T20:40:09;5.50;54.10
11597;DHT22;5854;48.072;16.286;2023-02-11T20:42:37;5.50;55.00
11597;DHT22;5854;48.072;16.286;2023-02-11T20:45:05;5.60;54.80
11597;DHT22;5854;48.072;16.286;2023-02-11T20:47:33;5.50;55.10
11597;DHT22;5854;48.072;16.286;2023-02-11T20:50:00;5.50;55.00
11597;DHT22;5854;48.072;16.286;2023-02-11T20:52:27;5.50;55.10
11597;DHT22;5854;48.072;16.286;2023-02-11T20:54:54;5.50;55.00
11597;DHT22;5854;48.072;16.286;2023-02-11T20:57:21;5.40;56.40
11597;DHT22;5854;48.072;16.286;2023-02-11T20:59:49;5.40;55.80
11597;DHT22;5854;48.072;16.286;2023-02-11T21:02:16;5.30;56.10
11597;DHT22;5854;48.072;16.286;2023-02-11T21:04:44;5.30;56.30
11597;DHT22;5854;48.072;16.286;2023-02-11T21:07:12;5.40;55.90
11597;DHT22;5854;48.072;16.286;2023-02-11T21:09:39;5.40;56.10
11597;DHT22;5854;48.072;16.286;2023-02-11T21:12:06;5.40;56.00
11597;DHT22;5854;48.072;16.286;2023-02-11T21:14:34;5.50;56.10
11597;DHT22;5854;48.072;16.286;2023-02-11T21:17:02;5.40;56.00
11597;DHT22;5854;48.072;16.286;2023-02-11T21:19:29;5.50;55.80
11597;DHT22;5854;48.072;16.286;2023-02-11T21:21:57;5.40;55.90
11597;DHT22;5854;48.072;16.286;2023-02-11T21:24:26;5.50;56.90
11597;DHT22;5854;48.072;16.286;2023-02-11T21:26:55;5.60;56.50
11597;DHT22;5854;48.072;16.286;2023-02-11T21:29:22;5.50;55.80
11597;DHT22;5854;48.072;16.286;2023-02-11T21:31:49;5.60;57.10
11597;DHT22;5854;48.072;16.286;2023-02-11T21:34:17;5.50;56.10
11597;DHT22;5854;48.072;16.286;2023-02-11T21:36:45;5.50;56.40
11597;DHT22;5854;48.072;16.286;2023-02-11T21:39:13;5.50;56.60
11597;DHT22;5854;48.072;16.286;2023-02-11T21:41:41;5.40;56.40
11597;DHT22;5854;48.072;16.286;2023-02-11T21:44:08;5.40;57.10
11597;DHT22;5854;48.072;16.286;2023-02-11T21:46:35;5.50;57.00
11597;DHT22;5854;48.072;16.286;2023-02-11T21:49:02;5.50;56.50
11597;DHT22;5854;48.072;16.286;2023-02-11T21:51:29;5.50;57.40
11597;DHT22;5854;48.072;16.286;2023-02-11T21:53:58;5.60;56.50
11597;DHT22;5854;48.072;16.286;2023-02-11T21:56:29;5.50;57.20
11597;DHT22;5854;48.072;16.286;2023-02-11T21:58:58;5.50;57.50
11597;DHT22;5854;48.072;16.286;2023-02-11T22:01:27;5.60;57.20
11597;DHT22;5854;48.072;16.286;2023-02-11T22:03:56;5.60;57.00
11597;DHT22;5854;48.072;16.286;2023-02-11T22:06:25;5.60;57.50
11597;DHT22;5854;48.072;16.286;2023-02-11T22:08:55;5.50;58.50
11597;DHT22;5854;48.072;16.286;2023-02-11T22:11:23;5.40;58.00
11597;DHT22;5854;48.072;16.286;2023-02-11T22:13:53;5.40;57.50
11597;DHT22;5854;48.072;16.286;2023-02-11T22:16:22;5.40;58.10
11597;DHT22;5854;48.072;16.286;2023-02-11T22:18:49;5.40;58.50
11597;DHT22;5854;48.072;16.286;2023-02-11T22:21:18;5.40;58.20
11597;DHT22;5854;48.072;16.286;2023-02-11T22:23:47;5.40;57.70
11597;DHT22;5854;48.072;16.286;2023-02-11T22:26:17;5.30;58.80
11597;DHT22;5854;48.072;16.286;2023-02-11T22:28:46;5.40;58.00
11597;DHT22;5854;48.072;16.286;2023-02-11T22:31:16;5.30;59.50
11597;DHT22;5854;48.072;16.286;2023-02-11T22:33:45;5.40;58.90
11597;DHT22;5854;48.072;16.286;2023-02-11T22:36:14;5.40;59.10
11597;DHT22;5854;48.072;16.286;2023-02-11T22:38:43;5.30;58.60
11597;DHT22;5854;48.072;16.286;2023-02-11T22:41:10;5.40;58.70
11597;DHT22;5854;48.072;16.286;2023-02-11T22:43:38;5.30;59.50
11597;DHT22;5854;48.072;16.286;2023-02-11T22:46:06;5.40;59.40
11597;DHT22;5854;48.072;16.286;2023-02-11T22:48:35;5.40;58.90
11597;DHT22;5854;48.072;16.286;2023-02-11T22:51:03;5.40;58.80
11597;DHT22;5854;48.072;16.286;2023-02-11T22:53:32;5.40;59.80
11597;DHT22;5854;48.072;16.286;2023-02-11T22:56:05;5.40;59.80
11597;DHT22;5854;48.072;16.286;2023-02-11T22:58:37;5.40;60.00
11597;DHT22;5854;48.072;16.286;2023-02-11T23:01:05;5.40;59.30
11597;DHT22;5854;48.072;16.286;2023-02-11T23:03:35;5.40;61.20
11597;DHT22;5854;48.072;16.286;2023-02-11T23:06:02;5.50;60.30
11597;DHT22;5854;48.072;16.286;2023-02-11T23:08:30;5.50;59.70
11597;DHT22;5854;48.072;16.286;2023-02-11T23:11:02;5.40;58.70
11597;DHT22;5854;48.072;16.286;2023-02-11T23:13:33;5.50;60.10
11597;DHT22;5854;48.072;16.286;2023-02-11T23:16:03;5.40;59.00
11597;DHT22;5854;48.072;16.286;2023-02-11T23:18:31;5.40;60.10
11597;DHT22;5854;48.072;16.286;2023-02-11T23:21:04;5.40;59.90
11597;DHT22;5854;48.072;16.286;2023-02-11T23:23:33;5.40;60.40
11597;DHT22;5854;48.072;16.286;2023-02-11T23:26:01;5.40;60.80
11597;DHT22;5854;48.072;16.286;2023-02-11T23:28:28;5.40;59.80
11597;DHT22;5854;48.072;16.286;2023-02-11T23:30:55;5.40;60.60
11597;DHT22;5854;48.072;16.286;2023-02-11T23:33:22;5.40;60.30
11597;DHT22;5854;48.072;16.286;2023-02-11T23:35:49;5.40;60.20
11597;DHT22;5854;48.072;16.286;2023-02-11T23:38:17;5.40;60.80
11597;DHT22;5854;48.072;16.286;2023-02-11T23:40:45;5.40;61.10
11597;DHT22;5854;48.072;16.286;2023-02-11T23:43:12;5.50;61.40
11597;DHT22;5854;48.072;16.286;2023-02-11T23:45:39;5.40;60.30
11597;DHT22;5854;48.072;16.286;2023-02-11T23:48:06;5.40;60.50
11597;DHT22;5854;48.072;16.286;2023-02-11T23:50:36;5.50;61.90
11597;DHT22;5854;48.072;16.286;2023-02-11T23:53:05;5.70;61.80
11597;DHT22;5854;48.072;16.286;2023-02-11T23:55:34;5.60;63.00
11597;DHT22;5854;48.072;16.286;2023-02-11T23:58:04;5.70;61.10
